Time;durP1;ratioP1;P1;durP2;ratioP2;P2;SDS_P1;SDS_P2;PMS_P1;PMS_P2;Temp;Humidity;BMP_temperature;BMP_pressure;BME280_temperature;BME280_humidity;BME280_pressure;Samples;Min_cycle;Max_cycle;Signal;HPM_P1;HPM_P2
2022/10/24 00:01:34;;;;;;;4.68;1.92;;;18.70;85.10;;;;;;5093491;28;20043;-76
2022/10/24 00:03:59;;;;;;;4.53;1.85;;;18.70;85.10;;;;;;5093517;28;20405;-77
2022/10/24 00:06:25;;;;;;;4.50;1.83;;;18.70;85.10;;;;;;5075281;28;20470;-76
2022/10/24 00:08:51;;;;;;;4.22;1.52;;;18.70;85.10;;;;;;5093642;28;20020;-76
2022/10/24 00:11:24;;;;;;;4.40;2.20;;;18.70;86.20;;;;;;5075572;28;20488;-76
2022/10/24 00:13:50;;;;;;;4.60;2.00;;;18.70;85.10;;;;;;5075373;28;20097;-76
2022/10/24 00:16:16;;;;;;;4.43;1.60;;;18.70;85.20;;;;;;5075246;28;20071;-76
2022/10/24 00:18:42;;;;;;;4.85;1.90;;;18.70;85.10;;;;;;5075254;28;20024;-76
2022/10/24 00:21:07;;;;;;;5.97;1.80;;;18.70;85.20;;;;;;5074887;28;20047;-76
2022/10/24 00:23:33;;;;;;;5.55;2.30;;;18.70;85.20;;;;;;5058058;28;20474;-76
2022/10/24 00:26:00;;;;;;;5.63;1.67;;;18.70;85.20;;;;;;5093199;28;20081;-76
2022/10/24 00:28:27;;;;;;;7.53;2.30;;;18.70;85.20;;;;;;5075320;28;20016;-76
2022/10/24 00:30:52;;;;;;;4.50;1.85;;;18.70;85.20;;;;;;5075043;28;20055;-76
2022/10/24 00:33:18;;;;;;;9.15;2.00;;;18.70;85.20;;;;;;5075106;28;20043;-76
2022/10/24 00:35:44;;;;;;;5.10;1.55;;;18.70;85.30;;;;;;5074847;28;20032;-76
2022/10/24 00:38:09;;;;;;;4.70;2.08;;;18.70;85.30;;;;;;5074796;28;20066;-76
2022/10/24 00:40:35;;;;;;;4.47;1.80;;;18.70;85.40;;;;;;5074829;28;20050;-76
2022/10/24 00:43:01;;;;;;;7.85;1.80;;;18.60;85.20;;;;;;5092994;28;20500;-76
2022/10/24 00:45:41;;;;;;;4.00;1.85;;;18.60;85.50;;;;;;5058156;28;20034;-76
2022/10/24 00:48:30;;;;;;;4.65;1.80;;;18.70;85.40;;;;;;5074649;28;20020;-76
2022/10/24 00:51:05;;;;;;;4.40;1.63;;;18.70;85.40;;;;;;5077326;28;20032;-76
2022/10/24 00:53:31;;;;;;;8.43;2.10;;;18.60;85.30;;;;;;5092677;28;20016;-76
2022/10/24 00:55:58;;;;;;;5.40;1.50;;;18.60;85.50;;;;;;5074744;28;20034;-76
2022/10/24 00:58:26;;;;;;;4.60;2.00;;;18.70;85.50;;;;;;5074689;28;20080;-76
2022/10/24 01:00:52;;;;;;;7.90;2.10;;;18.60;85.50;;;;;;5058075;28;20127;-76
2022/10/24 01:03:17;;;;;;;4.47;1.60;;;18.60;85.50;;;;;;5074421;28;20127;-76
2022/10/24 01:06:12;;;;;;;3.55;1.50;;;18.60;85.50;;;;;;5057705;28;20028;-76
2022/10/24 01:08:49;;;;;;;3.85;1.60;;;18.60;85.50;;;;;;5074446;28;20024;-77
2022/10/24 01:11:25;;;;;;;5.45;2.08;;;18.60;85.50;;;;;;5057759;28;20440;-76
2022/10/24 01:14:17;;;;;;;4.88;1.80;;;18.60;85.50;;;;;;5074481;28;20028;-76
2022/10/24 01:17:01;;;;;;;3.50;1.67;;;18.60;85.50;;;;;;5086513;28;20052;-76
2022/10/24 01:19:47;;;;;;;6.30;1.98;;;18.60;85.60;;;;;;5092132;28;20436;-76
2022/10/24 01:22:17;;;;;;;6.78;2.00;;;18.60;85.60;;;;;;5092317;28;20028;-76
2022/10/24 01:24:49;;;;;;;4.65;1.98;;;18.60;85.50;;;;;;5074417;28;20020;-77
2022/10/24 01:27:48;;;;;;;4.45;2.03;;;18.60;85.60;;;;;;5092436;28;20024;-76
2022/10/24 01:30:14;;;;;;;4.80;1.85;;;18.60;85.50;;;;;;5080720;28;20020;-76
2022/10/24 01:32:40;;;;;;;4.70;1.70;;;18.60;85.60;;;;;;5078129;28;20024;-76
2022/10/24 01:35:34;;;;;;;5.72;1.63;;;18.60;85.60;;;;;;5078226;28;20039;-76
2022/10/24 01:38:04;;;;;;;4.55;1.70;;;18.60;85.60;;;;;;5096355;28;20072;-76
2022/10/24 01:40:32;;;;;;;6.43;1.90;;;18.60;85.60;;;;;;5078822;28;20512;-76
2022/10/24 01:43:01;;;;;;;4.03;1.50;;;18.60;85.60;;;;;;5078164;28;20024;-76
2022/10/24 01:45:32;;;;;;;7.20;2.42;;;18.60;85.60;;;;;;5061462;28;20046;-76
2022/10/24 01:47:59;;;;;;;3.85;2.25;;;18.60;85.60;;;;;;5061041;28;20032;-76
2022/10/24 01:50:25;;;;;;;3.35;1.50;;;18.60;85.60;;;;;;5078224;28;20024;-76
2022/10/24 01:52:51;;;;;;;3.05;1.42;;;18.60;85.60;;;;;;5078036;28;20032;-76
2022/10/24 01:55:16;;;;;;;5.70;1.80;;;18.60;85.60;;;;;;5078023;28;20024;-76
2022/10/24 01:57:42;;;;;;;3.58;1.30;;;18.60;86.60;;;;;;5077932;28;20024;-76
2022/10/24 02:00:11;;;;;;;4.55;2.03;;;18.60;85.60;;;;;;5095912;28;20078;-76
2022/10/24 02:02:39;;;;;;;5.32;1.30;;;18.60;85.60;;;;;;5077634;28;20032;-76
2022/10/24 02:05:12;;;;;;;2.97;1.55;;;18.60;85.60;;;;;;5061323;28;20028;-76
2022/10/24 02:07:38;;;;;;;4.35;1.75;;;18.60;85.70;;;;;;5077846;28;20048;-76
2022/10/24 02:10:34;;;;;;;5.63;1.77;;;18.60;85.70;;;;;;5077384;28;20477;-76
2022/10/24 02:13:12;;;;;;;6.03;1.92;;;18.60;85.70;;;;;;5079455;28;20043;-76
2022/10/24 02:15:44;;;;;;;2.95;1.67;;;18.60;85.70;;;;;;5077246;28;20432;-76
2022/10/24 02:18:09;;;;;;;5.20;1.67;;;18.60;85.70;;;;;;5077518;28;20024;-76
2022/10/24 02:20:40;;;;;;;4.07;1.23;;;18.60;85.70;;;;;;5077240;28;20118;-76
2022/10/24 02:23:12;;;;;;;4.88;1.58;;;18.60;85.70;;;;;;5077427;28;20448;-76
2022/10/24 02:25:38;;;;;;;4.80;1.55;;;18.60;86.80;;;;;;5077425;28;20031;-76
2022/10/24 02:28:08;;;;;;;4.78;1.70;;;18.60;85.70;;;;;;5077357;28;20032;-76
2022/10/24 02:30:36;;;;;;;6.00;1.95;;;18.50;85.60;;;;;;5077170;28;20012;-76
2022/10/24 02:33:02;;;;;;;4.43;1.50;;;18.50;85.70;;;;;;5077368;28;20024;-76
2022/10/24 02:35:29;;;;;;;2.80;1.38;;;18.50;85.70;;;;;;5077256;28;20444;-76
2022/10/24 02:38:19;;;;;;;5.07;1.63;;;18.50;85.70;;;;;;5077209;28;20023;-76
2022/10/24 02:40:45;;;;;;;4.22;1.70;;;18.50;85.70;;;;;;5078358;28;20032;-76
2022/10/24 02:43:11;;;;;;;4.78;1.45;;;18.50;85.70;;;;;;5077227;28;20047;-76
2022/10/24 02:45:37;;;;;;;3.65;1.70;;;18.50;85.80;;;;;;5076675;28;20085;-76
2022/10/24 02:48:04;;;;;;;2.97;1.73;;;18.50;85.70;;;;;;5077098;28;20024;-76
2022/10/24 02:50:30;;;;;;;5.80;1.95;;;18.50;85.70;;;;;;5076811;28;20494;-76
2022/10/24 02:52:55;;;;;;;3.95;1.30;;;18.50;85.70;;;;;;5076871;28;20035;-76
2022/10/24 02:55:21;;;;;;;4.80;1.70;;;18.50;85.70;;;;;;5094848;28;20497;-76
2022/10/24 02:57:47;;;;;;;5.68;1.70;;;18.50;85.70;;;;;;5076749;28;20058;-76
2022/10/24 03:00:13;;;;;;;2.95;1.40;;;18.50;85.70;;;;;;5059732;28;20478;-76
2022/10/24 03:02:38;;;;;;;4.10;1.48;;;18.50;85.70;;;;;;5094781;28;20113;-76
2022/10/24 03:05:04;;;;;;;4.75;1.58;;;18.50;85.70;;;;;;5094863;28;20055;-76
2022/10/24 03:07:30;;;;;;;5.25;1.80;;;18.50;85.70;;;;;;5094642;28;20077;-76
2022/10/24 03:09:56;;;;;;;4.25;1.30;;;18.50;85.70;;;;;;5076474;28;20024;-76
2022/10/24 03:12:23;;;;;;;5.57;1.45;;;18.50;85.70;;;;;;5094824;28;20539;-76
2022/10/24 03:14:48;;;;;;;4.70;1.80;;;18.50;85.70;;;;;;5094178;28;20027;-76
2022/10/24 03:17:14;;;;;;;3.35;1.30;;;18.50;85.70;;;;;;5076605;28;20099;-76
2022/10/24 03:19:40;;;;;;;5.70;1.35;;;18.50;85.70;;;;;;5076183;28;20040;-76
2022/10/24 03:22:05;;;;;;;2.90;1.33;;;18.50;85.70;;;;;;5094202;28;20020;-76
2022/10/24 03:24:31;;;;;;;3.45;1.50;;;18.50;85.80;;;;;;5076404;28;20034;-76
2022/10/24 03:26:56;;;;;;;2.28;1.30;;;18.50;85.80;;;;;;5094335;28;20111;-76
2022/10/24 03:29:22;;;;;;;7.32;1.60;;;18.50;85.80;;;;;;5075937;28;20111;-76
2022/10/24 03:31:48;;;;;;;2.78;1.20;;;18.50;85.80;;;;;;5076180;28;20050;-76
2022/10/24 03:34:13;;;;;;;4.82;1.25;;;18.50;85.80;;;;;;5076167;28;20459;-76
2022/10/24 03:36:39;;;;;;;3.45;1.42;;;18.50;85.80;;;;;;5076026;28;20060;-76
2022/10/24 03:39:04;;;;;;;2.75;1.27;;;18.50;85.80;;;;;;5075903;28;20427;-76
2022/10/24 03:41:30;;;;;;;4.25;1.33;;;18.50;85.80;;;;;;5076331;28;20028;-76
2022/10/24 03:43:56;;;;;;;3.10;1.40;;;18.50;85.80;;;;;;5075601;28;20017;-76
2022/10/24 03:46:21;;;;;;;3.30;1.30;;;18.50;85.80;;;;;;5076052;28;20150;-77
2022/10/24 03:48:47;;;;;;;3.03;1.05;;;18.50;85.70;;;;;;5075820;28;20024;-76
2022/10/24 03:51:13;;;;;;;1.92;1.00;;;18.50;85.70;;;;;;5075686;28;20032;-75
2022/10/24 03:53:38;;;;;;;2.60;1.48;;;18.40;85.70;;;;;;5075751;28;20020;-76
2022/10/24 03:56:04;;;;;;;5.28;1.45;;;18.40;85.70;;;;;;5075693;28;20028;-75
2022/10/24 03:58:30;;;;;;;2.97;1.42;;;18.40;85.70;;;;;;5075811;28;20027;-76
2022/10/24 04:00:57;;;;;;;1.70;1.33;;;18.40;85.70;;;;;;5075488;28;20023;-76
2022/10/24 04:03:24;;;;;;;4.68;1.50;;;18.40;85.70;;;;;;5075825;28;20046;-76
2022/10/24 04:05:50;;;;;;;1.45;0.90;;;18.40;85.70;;;;;;5075653;28;20028;-76
2022/10/24 04:08:16;;;;;;;2.58;1.23;;;18.40;85.70;;;;;;5075684;28;20024;-76
2022/10/24 04:10:42;;;;;;;6.68;1.85;;;18.40;86.60;;;;;;5093433;28;20050;-76
2022/10/24 04:13:07;;;;;;;3.13;1.58;;;18.40;85.80;;;;;;5058459;28;20383;-76
2022/10/24 04:15:33;;;;;;;3.90;1.25;;;18.40;85.70;;;;;;5093384;28;20028;-76
2022/10/24 04:17:58;;;;;;;1.77;1.25;;;18.40;85.70;;;;;;5075322;28;20020;-77
2022/10/24 04:20:24;;;;;;;2.83;1.42;;;18.40;85.70;;;;;;5093013;28;20046;-76
2022/10/24 04:22:50;;;;;;;2.80;1.40;;;18.40;85.70;;;;;;5074999;28;20115;-76
2022/10/24 04:25:16;;;;;;;3.45;1.40;;;18.40;85.70;;;;;;5093246;28;20034;-76
2022/10/24 04:27:41;;;;;;;3.90;1.20;;;18.40;85.70;;;;;;5074824;28;20024;-76
2022/10/24 04:30:08;;;;;;;3.72;1.30;;;18.40;85.70;;;;;;5058347;28;20107;-77
2022/10/24 04:32:34;;;;;;;2.40;1.08;;;18.40;85.70;;;;;;5075162;28;20028;-76
2022/10/24 04:35:00;;;;;;;4.68;1.30;;;18.40;85.70;;;;;;5092958;28;20028;-76
2022/10/24 04:37:26;;;;;;;4.00;1.23;;;18.40;85.70;;;;;;5093098;28;20020;-76
2022/10/24 04:39:53;;;;;;;3.60;1.30;;;18.40;85.70;;;;;;5092810;28;20497;-76
2022/10/24 04:42:19;;;;;;;2.65;1.25;;;18.40;85.90;;;;;;5072780;28;20051;-76
2022/10/24 04:44:45;;;;;;;3.45;1.58;;;18.40;85.90;;;;;;5073288;28;20028;-75
2022/10/24 04:47:10;;;;;;;4.72;1.95;;;18.40;85.70;;;;;;5074945;28;20519;-76
2022/10/24 04:49:36;;;;;;;4.97;1.73;;;18.40;85.70;;;;;;5092927;28;20031;-75
2022/10/24 04:52:02;;;;;;;6.95;1.30;;;18.40;85.70;;;;;;5074616;28;20022;-76
2022/10/24 04:54:27;;;;;;;4.65;1.70;;;18.40;85.70;;;;;;5074943;28;20103;-76
2022/10/24 04:56:53;;;;;;;7.28;1.85;;;18.40;85.70;;;;;;5092444;28;20036;-76
2022/10/24 04:59:19;;;;;;;1.95;1.30;;;18.40;85.80;;;;;;5074809;28;20028;-76
2022/10/24 05:01:44;;;;;;;2.75;1.10;;;18.30;85.70;;;;;;5092368;28;20103;-76
2022/10/24 05:04:11;;;;;;;2.03;1.15;;;18.30;85.70;;;;;;5073921;28;20460;-76
2022/10/24 05:06:37;;;;;;;3.70;1.10;;;18.30;85.80;;;;;;5092859;28;20039;-77
2022/10/24 05:09:03;;;;;;;10.73;1.63;;;18.40;85.80;;;;;;5074284;28;20396;-76
2022/10/24 05:11:28;;;;;;;4.50;1.67;;;18.40;85.80;;;;;;5092568;28;20047;-76
2022/10/24 05:13:54;;;;;;;3.28;1.10;;;18.40;85.90;;;;;;5074607;28;20032;-76
2022/10/24 05:16:19;;;;;;;4.38;1.50;;;18.30;85.80;;;;;;5074460;28;20032;-76
2022/10/24 05:18:45;;;;;;;4.40;1.33;;;18.30;85.80;;;;;;5074528;28;20032;-76
2022/10/24 05:21:11;;;;;;;5.45;1.58;;;18.40;85.90;;;;;;5074213;28;20032;-76
2022/10/24 05:23:36;;;;;;;5.75;1.40;;;18.40;85.90;;;;;;5074213;28;20077;-76
2022/10/24 05:26:02;;;;;;;4.60;0.88;;;18.30;85.90;;;;;;5074338;28;20020;-76
2022/10/24 05:28:28;;;;;;;3.53;1.38;;;18.30;85.80;;;;;;5074398;28;20428;-76
2022/10/24 05:30:53;;;;;;;4.25;1.42;;;18.30;85.80;;;;;;5074327;28;20024;-78
2022/10/24 05:33:19;;;;;;;3.47;1.10;;;18.30;85.90;;;;;;5074414;28;20024;-77
2022/10/24 05:35:45;;;;;;;3.80;1.40;;;18.30;83.20;;;;;;5074433;28;20028;-76
2022/10/24 05:38:10;;;;;;;5.15;2.13;;;18.30;82.40;;;;;;5092247;28;20103;-76
2022/10/24 05:40:36;;;;;;;6.60;2.75;;;18.20;82.40;;;;;;5057551;28;20482;-76
2022/10/24 05:43:02;;;;;;;7.00;4.18;;;18.20;82.70;;;;;;5072046;28;20537;-76
2022/10/24 05:45:27;;;;;;;9.02;4.57;;;18.20;82.80;;;;;;5071569;28;20028;-74
2022/10/24 05:47:53;;;;;;;14.63;5.60;;;18.20;82.80;;;;;;5089840;28;20020;-76
2022/10/24 05:50:19;;;;;;;9.85;5.50;;;18.20;82.80;;;;;;5089732;28;20032;-76
2022/10/24 05:52:44;;;;;;;9.05;5.65;;;18.20;82.80;;;;;;5071388;28;20024;-76
2022/10/24 05:55:10;;;;;;;7.93;5.72;;;18.20;82.80;;;;;;5089641;28;20026;-75
2022/10/24 05:57:36;;;;;;;11.23;4.97;;;18.20;83.80;;;;;;5089248;28;20028;-73
2022/10/24 06:00:05;;;;;;;11.43;6.40;;;18.20;83.20;;;;;;5053302;28;20104;-73
2022/10/24 06:02:31;;;;;;;10.55;6.55;;;18.20;82.80;;;;;;5054652;28;20024;-73
2022/10/24 06:04:57;;;;;;;8.57;6.32;;;18.10;82.70;;;;;;5089140;28;20113;-73
2022/10/24 06:07:23;;;;;;;9.27;6.50;;;18.10;82.60;;;;;;5088110;28;20119;-73
2022/10/24 06:09:49;;;;;;;10.98;6.30;;;18.10;82.60;;;;;;5071463;28;20095;-73
2022/10/24 06:12:15;;;;;;;13.15;6.60;;;18.10;82.70;;;;;;5071220;28;20023;-73
2022/10/24 06:14:40;;;;;;;13.30;6.75;;;18.10;82.60;;;;;;5049721;28;20016;-73
2022/10/24 06:17:08;;;;;;;11.63;6.47;;;18.10;82.60;;;;;;5073760;28;20024;-73
2022/10/24 06:19:35;;;;;;;10.75;6.10;;;18.10;82.60;;;;;;5073540;28;20032;-73
2022/10/24 06:22:01;;;;;;;12.98;5.95;;;18.10;82.60;;;;;;5073500;28;20024;-73
2022/10/24 06:24:26;;;;;;;10.60;6.18;;;18.10;82.60;;;;;;5054997;28;20081;-73
2022/10/24 06:26:52;;;;;;;9.82;6.20;;;18.00;82.50;;;;;;5091725;28;20554;-73
2022/10/24 06:29:18;;;;;;;10.75;6.15;;;18.00;82.50;;;;;;5073617;28;20031;-73
2022/10/24 06:31:43;;;;;;;12.25;6.25;;;18.00;82.60;;;;;;5073576;28;20032;-73
2022/10/24 06:34:09;;;;;;;12.90;6.40;;;18.00;82.60;;;;;;5092353;28;20397;-73
2022/10/24 06:36:35;;;;;;;25.23;8.15;;;18.00;82.70;;;;;;5059651;28;20028;-74
2022/10/24 06:39:01;;;;;;;26.83;7.03;;;18.00;82.90;;;;;;5093753;28;20516;-74
2022/10/24 06:41:27;;;;;;;42.38;9.93;;;18.00;83.00;;;;;;5094020;28;20024;-74
2022/10/24 06:43:55;;;;;;;34.13;9.63;;;18.00;83.20;;;;;;5076017;28;20016;-74
2022/10/24 06:46:22;;;;;;;36.65;10.15;;;18.00;83.20;;;;;;5075900;28;20031;-74
2022/10/24 06:48:48;;;;;;;23.60;8.10;;;18.00;83.30;;;;;;5076408;28;20481;-74
2022/10/24 06:51:15;;;;;;;30.25;8.40;;;18.00;83.40;;;;;;5094248;28;20020;-74
2022/10/24 06:53:40;;;;;;;30.02;9.20;;;18.10;83.50;;;;;;5060161;28;20051;-74
2022/10/24 06:56:07;;;;;;;31.60;8.63;;;18.00;83.60;;;;;;5076697;28;20474;-74
2022/10/24 06:58:33;;;;;;;26.65;8.77;;;18.00;83.70;;;;;;5058789;28;20117;-74
2022/10/24 07:00:59;;;;;;;35.70;9.30;;;18.00;83.80;;;;;;5060190;28;20499;-74
2022/10/24 07:03:24;;;;;;;30.60;9.93;;;18.00;84.00;;;;;;5076887;28;20044;-74
2022/10/24 07:05:50;;;;;;;37.70;9.13;;;18.00;83.90;;;;;;5094735;28;20544;-74
2022/10/24 07:08:16;;;;;;;35.47;9.38;;;18.00;83.90;;;;;;5094472;28;20537;-74
2022/10/24 07:10:41;;;;;;;31.35;8.85;;;18.00;84.10;;;;;;5076642;28;20393;-74
2022/10/24 07:13:07;;;;;;;26.15;8.68;;;18.00;84.00;;;;;;5076629;28;20088;-74
2022/10/24 07:15:33;;;;;;;28.63;8.90;;;18.00;84.00;;;;;;5076307;28;20032;-74
2022/10/24 07:17:58;;;;;;;33.35;9.50;;;18.00;84.20;;;;;;5076558;28;20016;-74
2022/10/24 07:20:24;;;;;;;28.83;9.55;;;18.00;84.00;;;;;;5094067;28;20055;-74
2022/10/24 07:22:49;;;;;;;33.40;9.05;;;18.00;84.10;;;;;;5076339;28;20056;-74
2022/10/24 07:25:15;;;;;;;31.88;9.10;;;18.00;84.00;;;;;;5093890;28;20103;-74
2022/10/24 07:27:41;;;;;;;27.33;9.18;;;18.00;84.00;;;;;;5076195;28;20054;-74
2022/10/24 07:30:07;;;;;;;23.77;7.95;;;18.00;84.00;;;;;;5076207;28;20050;-74
2022/10/24 07:32:33;;;;;;;20.38;8.05;;;18.00;84.10;;;;;;5076357;28;20028;-74
2022/10/24 07:34:58;;;;;;;25.10;8.05;;;18.00;84.00;;;;;;5093836;28;20421;-74
2022/10/24 07:37:24;;;;;;;26.70;7.95;;;18.00;84.00;;;;;;5076237;28;20020;-74
2022/10/24 07:39:50;;;;;;;22.83;8.27;;;17.90;84.00;;;;;;5094195;28;20394;-74
2022/10/24 07:42:17;;;;;;;33.85;8.85;;;18.00;84.10;;;;;;5093964;28;20024;-74
2022/10/24 07:44:43;;;;;;;25.95;7.43;;;17.90;84.00;;;;;;5094161;28;20024;-74
2022/10/24 07:47:10;;;;;;;22.73;7.55;;;17.90;84.00;;;;;;5093863;28;20031;-74
2022/10/24 07:49:35;;;;;;;22.67;7.57;;;17.90;85.00;;;;;;5075948;28;20032;-74
2022/10/24 07:52:01;;;;;;;23.95;7.43;;;18.00;85.00;;;;;;5075871;28;20454;-74
2022/10/24 07:54:27;;;;;;;18.00;7.00;;;17.90;84.00;;;;;;5075761;28;20038;-74
2022/10/24 07:56:53;;;;;;;21.50;7.53;;;17.90;85.00;;;;;;5093800;28;20020;-74
2022/10/24 07:59:19;;;;;;;25.65;7.70;;;17.90;84.00;;;;;;5075765;28;20051;-74
2022/10/24 08:01:44;;;;;;;20.88;7.38;;;17.90;84.00;;;;;;5075642;28;20027;-74
2022/10/24 08:04:10;;;;;;;19.65;7.75;;;17.90;84.00;;;;;;5093439;28;20089;-74
2022/10/24 08:06:36;;;;;;;20.98;7.75;;;17.90;84.00;;;;;;5075718;28;20496;-74
2022/10/24 08:09:02;;;;;;;23.63;8.15;;;17.90;84.00;;;;;;5093593;28;20028;-74
2022/10/24 08:11:28;;;;;;;25.63;8.02;;;17.90;84.00;;;;;;5075408;28;20016;-74
2022/10/24 08:13:54;;;;;;;21.00;6.90;;;17.90;84.00;;;;;;5075527;28;20020;-74
2022/10/24 08:16:20;;;;;;;22.88;7.55;;;17.90;84.00;;;;;;5075412;28;20385;-74
2022/10/24 08:18:46;;;;;;;22.08;7.20;;;17.90;84.00;;;;;;5075225;28;20027;-74
2022/10/24 08:21:13;;;;;;;25.30;7.68;;;17.90;84.00;;;;;;5075001;28;20127;-74
2022/10/24 08:23:41;;;;;;;21.77;7.38;;;17.90;84.00;;;;;;5054806;28;20029;-74
2022/10/24 08:26:07;;;;;;;17.00;7.28;;;17.80;83.90;;;;;;5038706;28;20059;-74
2022/10/24 08:28:33;;;;;;;18.50;6.93;;;17.90;84.00;;;;;;5055284;28;20398;-74
2022/10/24 08:31:00;;;;;;;19.02;7.07;;;17.90;84.00;;;;;;5055101;28;20078;-74
2022/10/24 08:33:26;;;;;;;18.95;6.93;;;17.80;83.90;;;;;;5055048;28;20082;-74
2022/10/24 08:35:59;;;;;;;22.75;6.78;;;17.80;83.90;;;;;;5055039;28;20056;-74
2022/10/24 08:38:25;;;;;;;17.38;6.82;;;17.90;84.00;;;;;;5055033;28;20113;-74
2022/10/24 08:40:50;;;;;;;17.90;7.20;;;17.90;84.00;;;;;;5072962;28;20386;-74
2022/10/24 08:43:17;;;;;;;14.38;6.53;;;17.80;83.90;;;;;;5054946;28;20027;-74
2022/10/24 08:45:54;;;;;;;19.85;6.70;;;17.90;84.00;;;;;;5038385;28;20025;-74
2022/10/24 08:48:26;;;;;;;19.05;6.45;;;17.80;84.00;;;;;;5054492;28;20032;-74
2022/10/24 08:50:52;;;;;;;18.88;6.28;;;17.80;83.90;;;;;;5039403;28;20031;-74
2022/10/24 08:53:26;;;;;;;19.67;6.38;;;17.80;83.90;;;;;;5038386;28;20103;-74
2022/10/24 08:55:56;;;;;;;19.75;5.82;;;17.80;83.90;;;;;;5054754;28;20016;-74
2022/10/24 08:58:26;;;;;;;22.23;6.63;;;17.80;83.90;;;;;;5037907;28;20033;-74
2022/10/24 09:00:54;;;;;;;19.63;6.00;;;17.80;83.90;;;;;;5054635;28;20459;-74
2022/10/24 09:03:46;;;;;;;21.70;6.32;;;17.80;84.00;;;;;;5037933;28;20028;-74
2022/10/24 09:06:16;;;;;;;17.73;6.03;;;17.80;83.90;;;;;;5055457;28;20489;-74
2022/10/24 09:08:57;;;;;;;20.70;6.13;;;17.80;83.90;;;;;;5038636;28;20062;-74
2022/10/24 09:11:35;;;;;;;15.80;5.72;;;17.80;83.90;;;;;;5054499;28;20398;-74
2022/10/24 09:14:02;;;;;;;16.45;5.80;;;17.80;83.90;;;;;;5054236;28;20554;-74
2022/10/24 09:16:27;;;;;;;17.40;6.22;;;17.80;83.90;;;;;;5054103;28;20028;-74
2022/10/24 09:18:54;;;;;;;17.38;5.68;;;17.80;83.90;;;;;;5054145;28;20024;-74
2022/10/24 09:21:19;;;;;;;20.33;6.43;;;17.80;83.90;;;;;;5037969;28;20488;-74
2022/10/24 09:23:45;;;;;;;14.43;5.85;;;17.80;84.00;;;;;;5074027;28;20104;-74
2022/10/24 09:26:21;;;;;;;17.77;5.88;;;17.70;83.90;;;;;;5091361;28;20032;-74
2022/10/24 09:28:47;;;;;;;14.82;5.75;;;17.70;83.90;;;;;;5092495;28;20080;-74
2022/10/24 09:31:17;;;;;;;13.95;5.28;;;17.80;83.90;;;;;;5091021;28;20544;-74
2022/10/24 09:33:44;;;;;;;11.57;5.70;;;17.80;83.90;;;;;;5074473;28;20027;-74
2022/10/24 09:36:11;;;;;;;16.58;5.95;;;17.70;83.90;;;;;;5091075;28;20028;-74
2022/10/24 09:38:38;;;;;;;17.10;5.50;;;17.70;83.80;;;;;;5091012;28;20077;-74
2022/10/24 09:41:23;;;;;;;14.48;5.20;;;17.80;83.90;;;;;;5092494;28;20032;-74
2022/10/24 09:43:56;;;;;;;14.77;4.80;;;17.70;83.80;;;;;;5091459;28;20073;-74
2022/10/24 09:46:44;;;;;;;11.90;4.65;;;17.70;83.80;;;;;;5090808;28;20024;-74
2022/10/24 09:49:13;;;;;;;13.55;5.07;;;17.70;83.80;;;;;;5092631;28;20054;-74
2022/10/24 09:51:41;;;;;;;10.73;5.15;;;17.70;83.80;;;;;;5096098;28;20028;-74
2022/10/24 09:54:19;;;;;;;12.65;4.88;;;17.70;83.80;;;;;;5095073;28;20043;-74
2022/10/24 09:56:45;;;;;;;13.32;5.72;;;17.70;83.80;;;;;;5094628;28;20403;-74
2022/10/24 09:59:33;;;;;;;14.07;4.85;;;17.70;83.80;;;;;;5096041;28;20020;-74
2022/10/24 10:02:18;;;;;;;14.55;4.85;;;17.70;83.80;;;;;;5095967;28;20105;-74
2022/10/24 10:04:45;;;;;;;15.57;4.82;;;17.70;83.80;;;;;;5094876;28;20065;-74
2022/10/24 10:07:19;;;;;;;12.82;4.30;;;17.70;83.80;;;;;;5094811;28;20039;-74
2022/10/24 10:09:53;;;;;;;15.13;5.22;;;17.70;83.80;;;;;;5094631;28;20161;-74
2022/10/24 10:12:28;;;;;;;14.88;4.85;;;17.70;83.90;;;;;;5094548;28;20028;-74
2022/10/24 10:14:53;;;;;;;12.07;3.97;;;17.70;83.80;;;;;;5094471;28;20027;-74
2022/10/24 10:17:26;;;;;;;13.45;4.47;;;17.70;83.80;;;;;;5095660;28;20024;-74
2022/10/24 10:19:52;;;;;;;14.20;4.60;;;17.70;83.80;;;;;;5094400;28;20508;-74
2022/10/24 10:22:24;;;;;;;12.68;4.80;;;17.70;83.80;;;;;;5094038;28;20024;-74
2022/10/24 10:24:49;;;;;;;14.32;4.82;;;17.70;83.80;;;;;;5094515;28;20111;-74
2022/10/24 10:27:34;;;;;;;12.77;4.18;;;17.70;83.80;;;;;;5095528;28;20127;-74
2022/10/24 10:30:13;;;;;;;13.63;4.43;;;17.70;83.80;;;;;;5095486;28;20024;-74
2022/10/24 10:33:01;;;;;;;12.57;4.18;;;17.70;83.80;;;;;;5095395;28;20499;-74
2022/10/24 10:35:51;;;;;;;13.32;4.55;;;17.70;83.80;;;;;;5094252;28;20429;-74
2022/10/24 10:38:39;;;;;;;9.82;4.63;;;17.70;83.80;;;;;;5077036;28;20027;-74
2022/10/24 10:41:26;;;;;;;12.27;4.60;;;17.70;83.80;;;;;;5094213;28;20074;-74
2022/10/24 10:44:34;;;;;;;12.70;4.45;;;17.70;83.80;;;;;;5095154;28;20051;-74
2022/10/24 10:47:22;;;;;;;15.38;4.53;;;17.70;83.80;;;;;;5094756;28;20040;-74
2022/10/24 10:49:49;;;;;;;10.18;4.20;;;17.70;83.80;;;;;;5094091;28;20056;-74
2022/10/24 10:52:31;;;;;;;14.05;4.20;;;17.60;84.70;;;;;;5093820;28;20030;-74
2022/10/24 10:55:15;;;;;;;15.10;4.32;;;17.60;83.70;;;;;;5093940;28;20027;-74
2022/10/24 10:57:44;;;;;;;14.85;4.50;;;17.70;83.90;;;;;;5094809;28;20086;-74
2022/10/24 11:00:15;;;;;;;14.68;4.50;;;17.60;83.70;;;;;;5092939;28;20023;-74
2022/10/24 11:03:00;;;;;;;10.73;3.75;;;17.70;83.80;;;;;;5094773;28;20032;-74
2022/10/24 11:05:46;;;;;;;10.88;3.75;;;17.70;83.90;;;;;;5094709;28;20047;-74
2022/10/24 11:08:46;;;;;;;9.65;3.97;;;17.60;83.70;;;;;;5094677;28;20033;-74
2022/10/24 11:11:21;;;;;;;13.02;4.10;;;17.60;83.70;;;;;;5094834;28;20020;-74
2022/10/24 11:13:51;;;;;;;10.35;3.70;;;17.60;83.70;;;;;;5093423;28;20024;-74
2022/10/24 11:16:21;;;;;;;9.27;3.20;;;17.60;83.60;;;;;;5093418;28;20366;-74
2022/10/24 11:18:48;;;;;;;11.77;3.50;;;17.60;83.60;;;;;;5093416;28;20027;-74
2022/10/24 11:21:14;;;;;;;9.35;3.92;;;17.60;83.70;;;;;;5092980;28;20130;-74
2022/10/24 11:24:02;;;;;;;8.38;3.78;;;17.60;83.60;;;;;;5093092;28;20031;-74
2022/10/24 11:26:31;;;;;;;9.65;3.88;;;17.60;83.70;;;;;;5093045;28;20028;-74
2022/10/24 11:29:12;;;;;;;10.27;3.35;;;17.60;83.70;;;;;;5093266;28;20057;-74
2022/10/24 11:31:47;;;;;;;10.70;3.80;;;17.60;83.60;;;;;;5094230;28;20028;-74
2022/10/24 11:34:17;;;;;;;8.70;3.60;;;17.60;83.70;;;;;;5092957;28;20028;-74
2022/10/24 11:37:07;;;;;;;9.88;3.35;;;17.60;83.70;;;;;;5092984;28;20058;-74
2022/10/24 11:39:49;;;;;;;12.25;4.00;;;17.60;83.70;;;;;;5092947;28;20020;-74
2022/10/24 11:42:24;;;;;;;10.57;3.70;;;17.60;83.70;;;;;;5092823;28;20085;-74
2022/10/24 11:45:02;;;;;;;9.80;3.92;;;17.70;83.80;;;;;;5092818;28;20382;-74
2022/10/24 11:47:30;;;;;;;7.40;3.05;;;17.60;83.70;;;;;;5092815;28;20025;-74
2022/10/24 11:50:23;;;;;;;11.90;3.88;;;17.60;83.80;;;;;;5092911;28;20051;-74
2022/10/24 11:52:59;;;;;;;8.27;3.45;;;17.60;83.70;;;;;;5092832;28;20085;-74
2022/10/24 11:55:37;;;;;;;11.95;3.78;;;17.60;83.80;;;;;;5092255;28;20020;-74
2022/10/24 11:58:06;;;;;;;9.95;3.42;;;17.60;83.90;;;;;;5092688;28;20073;-74
2022/10/24 12:00:39;;;;;;;8.45;3.22;;;17.60;83.90;;;;;;5092706;28;20024;-74
2022/10/24 12:03:43;;;;;;;7.63;3.83;;;17.60;83.90;;;;;;5092743;28;20020;-74
2022/10/24 12:06:27;;;;;;;;;;;17.60;83.90;;;;;;5075843;28;20031;-74
2022/10/24 12:09:08;;;;;;;10.77;3.50;;;17.60;83.90;;;;;;5093551;28;19914;-74
2022/10/24 12:11:42;;;;;;;7.82;3.20;;;17.60;83.90;;;;;;5091954;28;20024;-74
2022/10/24 12:14:32;;;;;;;9.75;3.17;;;17.60;83.90;;;;;;5075416;28;20551;-74
2022/10/24 12:17:28;;;;;;;8.10;3.40;;;17.60;83.90;;;;;;5093349;28;20028;-74
2022/10/24 12:19:54;;;;;;;9.35;3.35;;;17.60;83.90;;;;;;5093193;28;20084;-74
2022/10/24 12:22:25;;;;;;;8.30;2.60;;;17.60;83.90;;;;;;5092077;28;20032;-74
2022/10/24 12:25:04;;;;;;;8.57;3.63;;;17.60;83.90;;;;;;5091928;28;20020;-74
2022/10/24 12:27:34;;;;;;;7.72;2.85;;;17.60;83.90;;;;;;5092128;28;20024;-74
2022/10/24 12:30:23;;;;;;;10.70;3.10;;;17.60;83.90;;;;;;5092307;28;20024;-74
2022/10/24 12:32:56;;;;;;;10.60;3.45;;;17.60;83.90;;;;;;5091893;28;20020;-74
2022/10/24 12:35:34;;;;;;;7.25;2.50;;;17.60;84.00;;;;;;5091877;28;20028;-74
2022/10/24 12:38:17;;;;;;;7.82;3.30;;;17.60;83.90;;;;;;5093151;28;20024;-74
2022/10/24 12:40:54;;;;;;;11.55;2.92;;;17.60;83.90;;;;;;5074536;28;20464;-74
2022/10/24 12:43:39;;;;;;;9.75;3.15;;;17.60;83.90;;;;;;5093006;28;20027;-74
2022/10/24 12:46:13;;;;;;;7.05;2.88;;;17.60;83.90;;;;;;5091789;28;20024;-74
2022/10/24 12:48:43;;;;;;;8.75;2.78;;;17.60;83.90;;;;;;5092937;28;20020;-74
2022/10/24 12:51:35;;;;;;;9.93;3.22;;;17.60;83.90;;;;;;5074844;28;20034;-74
2022/10/24 12:54:14;;;;;;;8.57;3.20;;;17.60;84.00;;;;;;5091371;28;20035;-74
2022/10/24 12:56:49;;;;;;;9.20;2.85;;;17.60;84.00;;;;;;5092603;28;20028;-74
2022/10/24 12:59:27;;;;;;;11.32;3.83;;;17.60;84.00;;;;;;5093001;28;20024;-74